tititudorancea.com
Ararat Weather - Ararat,Victoria,Australia
 
Daily Summary for April 20, 2015 Units:  Metric    English   Both
« Previous Day
Next Day »
Daily Weekly Monthly Yearly Custom
  Current: High: Low: Average:
Temperature: 12.1 °C 12.1 °C 4.6 °C 6.3 °C
Dew Point: 3.6 °C 5.1 °C 0.9 °C 2.3 °C
Humidity: 56% 81% 56% 76%
Wind Speed: 18.3km/h 18.3km/h 1.1km/h 7.4km/h
Wind Gust: 34.3km/h 34.3km/h - -
WindSSE - - SSW
Pressure: 1030.4 hPa 1031 hPa 1029.7 hPa -
Precipitation: 0 mm      
Historical Graphs
 
 
Ararat weather Find more about Weather in Ararat, AU


 




 


Tabular Data for April 20, 2015
Time Temperature Dew Point Pressure Wind Wind Speed Wind Gust Humidity Rainfall Rate (Hourly)
00:04 5.5 °C 1.4 °C 1030 hPa South 3.5 km/h 9.7 km/h 75% 0 mm
00:09 5.6 °C 1.5 °C 1030 hPa South 2.6 km/h 9.7 km/h 75% 0 mm
00:14 5.6 °C 1.5 °C 1030 hPa South 3.5 km/h 7.2 km/h 75% 0 mm
00:19 6 °C 1.9 °C 1030 hPa South 2.6 km/h 6.1 km/h 75% 0 mm
00:24 5.5 °C 1.4 °C 1030 hPa South 3.5 km/h 7.2 km/h 75% 0 mm
00:29 5.5 °C 1.6 °C 1030 hPa South 5 km/h 8.7 km/h 76% 0 mm
00:34 5.5 °C 1.6 °C 1029.7 hPa SSW 2.6 km/h 8.7 km/h 76% 0 mm
00:39 5.5 °C 1.6 °C 1030 hPa SSW 3.5 km/h 8.7 km/h 76% 0 mm
00:44 5.6 °C 1.7 °C 1030 hPa SSW 6.1 km/h 9.7 km/h 76% 0 mm
00:49 5.7 °C 1.8 °C 1030 hPa SW 3.5 km/h 11.1 km/h 76% 0 mm
00:54 5.8 °C 1.9 °C 1030 hPa SSW 6.1 km/h 11.1 km/h 76% 0 mm
00:59 5.8 °C 1.7 °C 1030 hPa SSW 3.5 km/h 11.1 km/h 75% 0 mm
01:04 5.9 °C 1.8 °C 1030 hPa SSW 3.5 km/h 11.1 km/h 75% 0 mm
01:09 5.8 °C 1.7 °C 1030 hPa SSW 2.6 km/h 11.1 km/h 75% 0 mm
01:14 5.7 °C 1.6 °C 1030 hPa South 3.5 km/h 8.7 km/h 75% 0 mm
01:19 5.8 °C 1.7 °C 1030 hPa South 2.6 km/h 8.7 km/h 75% 0 mm
01:24 5.6 °C 1.5 °C 1030 hPa SSW 2.6 km/h 8.7 km/h 75% 0 mm
01:29 5.5 °C 1.4 °C 1029.7 hPa SW 3.5 km/h 9.7 km/h 75% 0 mm
01:34 5.7 °C 1.6 °C 1030 hPa SW 3.5 km/h 11.1 km/h 75% 0 mm
01:39 5.5 °C 1.6 °C 1030 hPa SW 1.1 km/h 11.1 km/h 76% 0 mm
01:44 5.4 °C 1.5 °C 1030 hPa SW 5 km/h 11.1 km/h 76% 0 mm
01:49 5.4 °C 1.5 °C 1030 hPa SW 5 km/h 11.1 km/h 76% 0 mm
01:54 5.3 °C 1.4 °C 1030 hPa SSW 3.5 km/h 11.1 km/h 76% 0 mm
01:59 5.3 °C 1.4 °C 1029.7 hPa SSW 5 km/h 11.1 km/h 76% 0 mm
02:05 5.4 °C 1.7 °C 1030 hPa SW 5 km/h 11.1 km/h 77% 0 mm
02:10 5.5 °C 1.8 °C 1030 hPa SW 5 km/h 11.1 km/h 77% 0 mm
02:15 5.4 °C 1.7 °C 1030 hPa SW 6.1 km/h 11.1 km/h 77% 0 mm
02:20 5.3 °C 1.6 °C 1030 hPa SW 5 km/h 9.7 km/h 77% 0 mm
02:25 5.3 °C 1.6 °C 1030 hPa SW 2.6 km/h 9.7 km/h 77% 0 mm
02:30 5.4 °C 1.7 °C 1030 hPa SW 3.5 km/h 9.7 km/h 77% 0 mm
02:35 4.9 °C 1.2 °C 1030 hPa SW 2.6 km/h 9.7 km/h 77% 0 mm
02:40 5.1 °C 1.4 °C 1030 hPa SSW 3.5 km/h 9.7 km/h 77% 0 mm
02:45 5.4 °C 1.7 °C 1029.7 hPa SSW 2.6 km/h 9.7 km/h 77% 0 mm
02:50 5.2 °C 1.5 °C 1030 hPa SSW 3.5 km/h 8.7 km/h 77% 0 mm
03:00 4.9 °C 1.2 °C 1030 hPa SW 1.1 km/h 7.2 km/h 77% 0 mm
03:05 4.6 °C 0.9 °C 1029.7 hPa SSW 2.6 km/h 8.7 km/h 77% 0 mm
03:10 5.2 °C 1.5 °C 1029.7 hPa SSW 5 km/h 8.7 km/h 77% 0 mm
03:15 5.1 °C 1.6 °C 1030 hPa SSW 5 km/h 9.7 km/h 78% 0 mm
03:20 5.1 °C 1.6 °C 1029.7 hPa SSW 5 km/h 9.7 km/h 78% 0 mm
03:25 5.1 °C 1.6 °C 1029.7 hPa SW 5 km/h 11.1 km/h 78% 0 mm
03:31 4.6 °C 1.1 °C 1030 hPa SW 6.1 km/h 11.1 km/h 78% 0 mm
03:36 5.2 °C 1.7 °C 1030 hPa SSW 3.5 km/h 11.1 km/h 78% 0 mm
03:41 5 °C 1.5 °C 1029.7 hPa SSW 3.5 km/h 9.7 km/h 78% 0 mm
03:46 5.2 °C 1.7 °C 1029.7 hPa SSW 3.5 km/h 11.1 km/h 78% 0 mm
03:51 5.2 °C 1.7 °C 1029.7 hPa SSW 6.1 km/h 12.2 km/h 78% 0 mm
03:56 5.3 °C 1.8 °C 1029.7 hPa SSW 5 km/h 12.2 km/h 78% 0 mm
04:01 5.3 °C 1.8 °C 1030 hPa SW 7.2 km/h 15.8 km/h 78% 0 mm
04:06 5.6 °C 2.1 °C 1029.7 hPa SW 5 km/h 15.8 km/h 78% 0 mm
04:11 5.5 °C 1.9 °C 1029.7 hPa SW 6.1 km/h 12.2 km/h 78% 0 mm
04:16 5.3 °C 1.8 °C 1030 hPa SW 2.6 km/h 11.1 km/h 78% 0 mm
04:21 5.2 °C 1.7 °C 1029.7 hPa SSW 7.2 km/h 12.2 km/h 78% 0 mm
04:26 5.5 °C 1.9 °C 1029.7 hPa SSW 3.5 km/h 14.8 km/h 78% 0 mm
04:31 5.3 °C 1.8 °C 1030 hPa SSW 5 km/h 14.8 km/h 78% 0 mm
04:36 5.3 °C 1.8 °C 1030 hPa SSW 7.2 km/h 12.2 km/h 78% 0 mm
04:41 5.2 °C 1.8 °C 1029.7 hPa SSW 12.2 km/h 20.9 km/h 79% 0 mm
04:46 5.2 °C 1.8 °C 1030 hPa SSW 9.7 km/h 20.9 km/h 79% 0 mm
04:51 5.1 °C 1.8 °C 1029.7 hPa SSW 12.2 km/h 20.9 km/h 79% 0 mm
04:56 5.4 °C 2.1 °C 1029.7 hPa SW 9.7 km/h 19.5 km/h 79% 0 mm
05:01 5.1 °C 1.8 °C 1029.7 hPa SSW 8.7 km/h 20.9 km/h 79% 0 mm
05:06 5 °C 1.7 °C 1029.7 hPa SSW 11.1 km/h 20.9 km/h 79% 0 mm
05:11 5 °C 1.7 °C 1029.7 hPa SW 12.2 km/h 21.9 km/h 79% 0 mm
05:16 5.1 °C 1.8 °C 1029.7 hPa SSW 7.2 km/h 21.9 km/h 79% 0 mm
05:22 5.3 °C 1.9 °C 1029.7 hPa South 13.4 km/h 21.9 km/h 79% 0 mm
05:27 5.4 °C 2.1 °C 1029.7 hPa SSW 7.2 km/h 19.5 km/h 79% 0 mm
05:32 5.2 °C 1.8 °C 1029.7 hPa SSW 11.1 km/h 19.5 km/h 79% 0 mm
05:37 5.5 °C 1.9 °C 1030 hPa South 6.1 km/h 18.3 km/h 78% 0 mm
05:42 5.4 °C 1.9 °C 1030 hPa South 5 km/h 15.8 km/h 78% 0 mm
05:47 5.4 °C 1.9 °C 1030 hPa SSW 7.2 km/h 13.4 km/h 78% 0 mm
05:52 5.4 °C 2.1 °C 1030 hPa SSW 7.2 km/h 20.9 km/h 79% 0 mm
05:57 5.1 °C 1.6 °C 1030.4 hPa SSW 9.7 km/h 20.9 km/h 78% 0 mm
06:02 5.3 °C 1.9 °C 1030 hPa SSW 8.7 km/h 15.8 km/h 79% 0 mm
06:07 5.3 °C 1.9 °C 1030 hPa SSW 6.1 km/h 13.4 km/h 79% 0 mm
06:12 5.2 °C 1.8 °C 1030 hPa SSW 7.2 km/h 15.8 km/h 79% 0 mm
06:17 5.2 °C 1.8 °C 1030.4 hPa SSW 7.2 km/h 15.8 km/h 79% 0 mm
06:22 5.2 °C 1.8 °C 1030 hPa South 6.1 km/h 17.2 km/h 79% 0 mm
06:27 5.2 °C 1.8 °C 1030 hPa South 7.2 km/h 18.3 km/h 79% 0 mm
06:32 5.1 °C 1.8 °C 1030.4 hPa SSW 8.7 km/h 18.3 km/h 79% 0 mm
06:37 5 °C 1.8 °C 1030.4 hPa SW 7.2 km/h 20.9 km/h 80% 0 mm
06:42 5.1 °C 1.9 °C 1030.4 hPa SSW 7.2 km/h 20.9 km/h 80% 0 mm
06:47 5.1 °C 1.9 °C 1030.4 hPa SSW 9.7 km/h 19.5 km/h 80% 0 mm
06:52 5.2 °C 2.1 °C 1030.4 hPa SSW 7.2 km/h 20.9 km/h 80% 0 mm
06:57 5.4 °C 2.2 °C 1030.4 hPa SW 8.7 km/h 20.9 km/h 80% 0 mm
07:03 5.3 °C 2.1 °C 1030 hPa SW 9.7 km/h 19.5 km/h 80% 0 mm
07:08 5.1 °C 1.9 °C 1030 hPa SSW 9.7 km/h 15.8 km/h 80% 0 mm
07:13 5.2 °C 2.1 °C 1030 hPa South 11.1 km/h 20.9 km/h 80% 0 mm
07:18 5 °C 1.8 °C 1030 hPa SSW 11.1 km/h 21.9 km/h 80% 0 mm
07:23 5.5 °C 2.5 °C 1030 hPa SSW 9.7 km/h 21.9 km/h 81% 0 mm
07:28 5 °C 2 °C 1030 hPa SSW 14.8 km/h 23.3 km/h 81% 0 mm
07:33 5.1 °C 2.1 °C 1030 hPa SSW 11.1 km/h 23.3 km/h 81% 0 mm
07:38 5.2 °C 2.2 °C 1030 hPa SSW 13.4 km/h 23.3 km/h 81% 0 mm
07:43 5.3 °C 2.3 °C 1030.4 hPa South 9.7 km/h 21.9 km/h 81% 0 mm
07:48 5.5 °C 2.5 °C 1030.4 hPa South 14.8 km/h 21.9 km/h 81% 0 mm
07:53 5.7 °C 2.5 °C 1030.4 hPa SSW 12.2 km/h 23.3 km/h 80% 0 mm
07:58 5.9 °C 2.5 °C 1030.4 hPa SSW 11.1 km/h 23.3 km/h 79% 0 mm
08:03 6.3 °C 2.7 °C 1030.7 hPa SSW 8.7 km/h 23.3 km/h 78% 0 mm
08:08 6.3 °C 2.7 °C 1030.7 hPa SSW 6.1 km/h 21.9 km/h 78% 0 mm
08:13 6.4 °C 2.8 °C 1030.7 hPa South 7.2 km/h 18.3 km/h 78% 0 mm
08:18 6.4 °C 2.7 °C 1030.7 hPa SSE 8.7 km/h 15.8 km/h 77% 0 mm
08:23 6.6 °C 2.8 °C 1030.7 hPa South 9.7 km/h 17.2 km/h 77% 0 mm
08:28 6.8 °C 3 °C 1030.7 hPa South 6.1 km/h 17.2 km/h 77% 0 mm
08:33 7.1 °C 3.3 °C 1030.7 hPa South 7.2 km/h 15.8 km/h 77% 0 mm
08:38 7.3 °C 3.4 °C 1030.7 hPa SSW 6.1 km/h 18.3 km/h 76% 0 mm
08:43 8.1 °C 3.9 °C 1031 hPa SSW 12.2 km/h 18.3 km/h 75% 0 mm
08:48 7.9 °C 3.8 °C 1031 hPa South 7.2 km/h 19.5 km/h 75% 0 mm
08:53 8.2 °C 3.9 °C 1030.7 hPa SSW 7.2 km/h 19.5 km/h 74% 0 mm
08:58 8.5 °C 4.2 °C 1030.7 hPa SSW 9.7 km/h 19.5 km/h 74% 0 mm
09:03 8.9 °C 4.3 °C 1030.7 hPa SSE 9.7 km/h 19.5 km/h 73% 0 mm
09:08 9.4 °C 4.4 °C 1030.7 hPa SSE 9.7 km/h 20.9 km/h 71% 0 mm
09:13 9.8 °C 4.6 °C 1030.7 hPa South 5 km/h 21.9 km/h 70% 0 mm
09:18 10.1 °C 4.4 °C 1031 hPa South 9.7 km/h 21.9 km/h 68% 0 mm
09:23 10.3 °C 4.7 °C 1030.7 hPa South 9.7 km/h 20.9 km/h 68% 0 mm
09:28 10.4 °C 4.6 °C 1030.7 hPa South 14.8 km/h 23.3 km/h 67% 0 mm
09:34 10.6 °C 5.1 °C 1030.7 hPa South 7.2 km/h 23.3 km/h 69% 0 mm
09:39 10.7 °C 4.6 °C 1030.7 hPa South 17.2 km/h 25.6 km/h 66% 0 mm
09:49 10.8 °C 4.2 °C 1030.7 hPa South 12.2 km/h 24.5 km/h 64% 0 mm
09:54 10.9 °C 4.3 °C 1030.7 hPa South 9.7 km/h 25.6 km/h 64% 0 mm
09:59 11.2 °C 4.6 °C 1030.7 hPa South 11.1 km/h 25.6 km/h 64% 0 mm
10:04 11.4 °C 4.4 °C 1030.7 hPa South 13.4 km/h 21.9 km/h 62% 0 mm
10:09 11.7 °C 4.6 °C 1030.7 hPa SSW 11.1 km/h 24.5 km/h 62% 0 mm
10:14 11.7 °C 4.4 °C 1030.7 hPa South 14.8 km/h 24.5 km/h 61% 0 mm
10:19 11.8 °C 4 °C 1030.7 hPa SSE 18.3 km/h 24.5 km/h 59% 0 mm
10:24 11.8 °C 3.9 °C 1030.4 hPa SE 18.3 km/h 24.5 km/h 58% 0 mm
10:29 11.8 °C 3.6 °C 1030.7 hPa SSE 15.8 km/h 27 km/h 57% 0 mm
10:34 11.8 °C 3.5 °C 1030.7 hPa SSE 8.7 km/h 27 km/h 57% 0 mm
10:39 12.1 °C 3.6 °C 1030.4 hPa SSE 18.3 km/h 34.3 km/h 56% 0 mm
www.araratweather.com - Email: contact at araratweather.com
Data created with Cumulus & bmak
Click here to send mail.


ABOUT

Live weather data from Ararat, Victoria, Australia, 3377
Data uploaded from Cumulus every 5 minutes to Weather Underground.
This site then downloads the raw data for formatting and display.
Metric and imperial data can be displayed. Graphs and historical data available.
Includes Sun and Moon times and rain image live from BOM.

Check out Ararat Weather on Facebook, Twitter and Google +

Help support ongoing costs by checking out the ads





Follow @AraratWeather